Impacts METAR Board INFO
IDs:

KCLT - Charlotte/Douglas In, NC, US

Updated at: 2018 UTC 18 Feb 2018
Potential Impact None Slight Moderate High
Time18/08Z 18/09Z 18/10Z 18/11Z 18/12Z 18/13Z 18/14Z 18/15Z 18/16Z 18/17Z 18/18Z 18/19Z 18/20Z
VIS5 5 4 1 0.13 0.13 7 10 10 10 10 10 10
CIG230 240 2 -- -- -- -- -- -- -- 250
CoverOVCOVCOVCSCTOVCOVCSCTFEWSCTSCTSCTSCTBKN
FltCatMVFRMVFRLIFRIFRLIFRLIFRVFRVFRVFRVFRVFRVFRVFR
WXBRBRBRBRFGFG--------------
WDir000320330350360303030701100
WSpd0 0 0 4 3 3 5 10 10 8 7 5 4
WGst-- -- -- -- -- -- -- -- -- -- -- -- --
Raw hourly METARs
KCLT 180752Z 00000KT 5SM BR FEW004 OVC230 07/07 A3013 RMK AO2 SLP202 T00720072
KCLT 180852Z 00000KT 5SM BR FEW004 OVC240 07/07 A3013 RMK AO2 SLP203 T00720067 51009
KCLT 180952Z 00000KT 4SM BR OVC002 07/07 A3016 RMK AO2 SLP215 T00670067
KCLT 181057Z 32004KT 1SM R18C/1800VP6000FT BR SCT003 SCT250 06/06 A3019 RMK AO2 SFC VIS 3 T00560056
KCLT 181152Z 33003KT 1/8SM R18C/1000V1200FT FG OVC000 06/06 A3022 RMK AO2 SLP232 70004 T00610061 10083 20056 51029
KCLT 181302Z 35003KT 1/8SM R18C/1600V5000FT FG BKN000 OVC002 06/06 A3026 RMK AO2 T00560056
KCLT 181405Z 36005KT 7SM SCT002 SCT250 07/07 A3030 RMK AO2 T00720072
KCLT 181452Z 03010KT 10SM FEW012 FEW250 11/06 A3032 RMK AO2 SLP268 T01060061 51035
KCLT 181552Z 03010KT 10SM FEW180 SCT250 13/04 A3034 RMK AO2 SLP274 T01330044
KCLT 181652Z 03008KT 10SM FEW065 FEW180 SCT250 15/03 A3035 RMK AO2 SLP277 T01500028
KCLT 181752Z 07007KT 10SM FEW065 SCT250 16/02 A3034 RMK AO2 SLP273 T01560022 10156 20056 50006
KCLT 181852Z 11005KT 10SM FEW070 FEW180 SCT250 16/02 A3031 RMK AO2 SLP263 T01610017
KCLT 181952Z VRB04KT 10SM FEW070 FEW200 BKN250 18/02 A3030 RMK AO2 SLP257 T01780017